Time;durP1;ratioP1;P1;durP2;ratioP2;P2;SDS_P1;SDS_P2;PMS_P1;PMS_P2;Temp;Humidity;BMP_temperature;BMP_pressure;BME280_temperature;BME280_humidity;BME280_pressure;Samples;Min_cycle;Max_cycle;Signal;HPM_P1;HPM_P2
2023/01/12 00:01:10;;;;;;;10.97;2.43;;;;;;;7.60;100.00;101009.06;5075675;28;20028;-37
2023/01/12 00:03:35;;;;;;;9.67;2.40;;;;;;;7.62;100.00;101009.69;5075851;28;20051;-37
2023/01/12 00:06:06;;;;;;;8.60;2.67;;;;;;;7.63;100.00;100997.88;5075321;28;20021;-37
2023/01/12 00:08:33;;;;;;;7.95;2.28;;;;;;;7.58;100.00;100987.75;5075991;28;20020;-37
2023/01/12 00:10:58;;;;;;;11.95;3.03;;;;;;;7.69;100.00;100994.34;5076144;28;20407;-37
2023/01/12 00:13:23;;;;;;;10.43;2.70;;;;;;;7.67;100.00;100980.28;5075784;28;20168;-37
2023/01/12 00:18:32;;;;;;;9.52;2.80;;;;;;;7.78;100.00;100984.22;5075094;28;20051;-37
2023/01/12 00:20:58;;;;;;;9.33;2.47;;;;;;;7.80;100.00;100990.19;5075788;28;20441;-37
2023/01/12 00:23:24;;;;;;;12.90;2.43;;;;;;;7.81;100.00;100986.47;5075303;28;20020;-36
2023/01/12 00:25:51;;;;;;;13.50;3.50;;;;;;;7.79;100.00;100992.06;5075641;28;20453;-37
2023/01/12 00:28:16;;;;;;;12.45;3.15;;;;;;;7.84;100.00;100988.75;5074908;28;20032;-37
2023/01/12 00:30:42;;;;;;;13.45;2.70;;;;;;;7.86;100.00;100981.31;5075236;28;20093;-37
2023/01/12 00:33:07;;;;;;;8.43;2.40;;;;;;;7.86;100.00;100968.66;5075113;28;20090;-37
2023/01/12 00:35:34;;;;;;;15.07;3.07;;;;;;;7.88;100.00;100971.97;5074676;28;20029;-37
2023/01/12 00:38:00;;;;;;;9.50;2.22;;;;;;;7.89;100.00;100960.16;5074956;28;20121;-37
2023/01/12 00:40:25;;;;;;;11.30;3.17;;;;;;;7.88;100.00;100963.88;5075399;28;20071;-37
2023/01/12 00:45:34;;;;;;;9.93;2.60;;;;;;;7.85;100.00;100942.75;5075322;28;20507;-37
2023/01/12 00:47:59;;;;;;;11.10;3.37;;;;;;;7.86;100.00;100949.81;5074988;28;20060;-38
2023/01/12 00:50:25;;;;;;;11.93;3.53;;;;;;;7.86;100.00;100949.00;5074993;28;20059;-38
2023/01/12 00:52:50;;;;;;;12.23;3.10;;;;;;;7.87;100.00;100945.25;5075332;28;20097;-38
2023/01/12 00:55:15;;;;;;;14.20;3.57;;;;;;;7.88;100.00;100953.13;5074810;28;20052;-38
2023/01/12 00:57:41;;;;;;;14.57;2.67;;;;;;;7.83;100.00;100946.72;5074537;28;20461;-38
2023/01/12 01:00:07;;;;;;;13.07;3.17;;;;;;;7.78;100.00;100936.56;5075236;28;20024;-38
2023/01/12 01:02:32;;;;;;;11.70;2.83;;;;;;;7.89;100.00;100940.47;5074385;28;20380;-38
2023/01/12 01:04:58;;;;;;;12.63;2.73;;;;;;;7.87;100.00;100934.50;5074067;28;20032;-38
2023/01/12 01:07:23;;;;;;;10.40;2.90;;;;;;;7.83;100.00;100926.00;5073572;28;20021;-38
2023/01/12 01:09:49;;;;;;;11.23;3.13;;;;;;;7.83;100.00;100920.63;5074458;28;20025;-36
2023/01/12 01:12:15;;;;;;;9.52;2.60;;;;;;;7.83;100.00;100922.47;5073796;28;20039;-36
2023/01/12 01:14:40;;;;;;;13.38;2.65;;;;;;;7.86;100.00;100919.38;5074504;28;20103;-36
2023/01/12 01:17:06;;;;;;;8.53;2.50;;;;;;;7.80;100.00;100906.75;5074058;28;20040;-36
2023/01/12 01:19:31;;;;;;;9.00;2.70;;;;;;;7.85;100.00;100917.69;5074086;28;20021;-36
2023/01/12 01:21:57;;;;;;;11.07;2.93;;;;;;;7.85;100.00;100906.94;5073776;28;20502;-36
2023/01/12 01:24:22;;;;;;;9.67;2.97;;;;;;;7.84;100.00;100903.41;5073831;28;20397;-36
2023/01/12 01:26:49;;;;;;;11.77;3.88;;;;;;;7.84;100.00;100903.41;5073654;28;20060;-36
2023/01/12 01:29:15;;;;;;;12.35;3.45;;;;;;;7.86;100.00;100903.22;5074007;28;20029;-36
2023/01/12 01:31:40;;;;;;;13.50;3.35;;;;;;;7.86;100.00;100895.97;5073599;28;20028;-36
2023/01/12 01:34:05;;;;;;;13.40;3.37;;;;;;;7.79;100.00;100886.25;5073993;28;20488;-37
2023/01/12 01:36:31;;;;;;;14.57;3.30;;;;;;;7.84;100.00;100886.44;5073839;28;20107;-37
2023/01/12 01:38:56;;;;;;;14.77;3.30;;;;;;;7.84;100.00;100889.94;5072255;28;20127;-37
2023/01/12 01:41:30;;;;;;;14.87;3.47;;;;;;;7.78;100.00;100890.81;5072614;28;20055;-37
2023/01/12 01:44:22;;;;;;;13.38;3.38;;;;;;;7.83;100.00;100901.75;5074310;28;20071;-37
2023/01/12 01:46:53;;;;;;;17.67;3.22;;;;;;;7.82;100.00;100889.34;5074299;28;20036;-37
2023/01/12 01:49:42;;;;;;;12.82;3.47;;;;;;;7.81;100.00;100889.53;5072155;28;20031;-37
2023/01/12 01:52:11;;;;;;;13.48;3.97;;;;;;;7.81;100.00;100890.41;5073973;28;20105;-37
2023/01/12 01:54:54;;;;;;;14.82;3.15;;;;;;;7.80;100.00;100877.94;5073308;28;20029;-37
2023/01/12 01:57:21;;;;;;;11.95;3.47;;;;;;;7.72;100.00;100867.44;5073640;28;20424;-37
2023/01/12 01:59:52;;;;;;;14.13;3.67;;;;;;;7.74;100.00;100859.97;5074115;28;20051;-37
2023/01/12 02:02:18;;;;;;;13.60;3.33;;;;;;;7.80;100.00;100863.66;5073240;28;20497;-37
2023/01/12 02:04:44;;;;;;;14.45;3.33;;;;;;;7.72;100.00;100846.72;5074139;28;20063;-37
2023/01/12 02:07:10;;;;;;;17.08;3.38;;;;;;;7.80;100.00;100863.66;5074057;28;20056;-37
2023/01/12 02:09:36;;;;;;;17.10;3.80;;;;;;;7.81;100.00;100854.53;5073987;28;20079;-37
2023/01/12 02:17:45;;;;;;;13.20;3.60;;;;;;;7.79;100.00;100872.78;5073779;28;20181;-37
2023/01/12 02:20:28;;;;;;;15.40;3.60;;;;;;;7.78;100.00;100855.00;5076490;28;20263;-37
2023/01/12 02:23:21;;;;;;;14.55;2.90;;;;;;;7.78;100.00;100836.16;5078103;28;20036;-37
2023/01/12 02:25:59;;;;;;;14.38;4.03;;;;;;;7.70;100.00;100831.81;5077738;28;20178;-37
2023/01/12 02:28:36;;;;;;;19.67;3.72;;;;;;;7.75;100.00;100837.38;5078308;28;20032;-37
2023/01/12 02:31:13;;;;;;;13.60;3.53;;;;;;;7.69;100.00;100820.22;5077808;28;20024;-37
2023/01/12 02:34:14;;;;;;;13.90;3.13;;;;;;;7.78;100.00;100847.72;5077908;28;20031;-37
2023/01/12 02:36:44;;;;;;;13.68;3.10;;;;;;;7.77;100.00;100821.84;5076932;28;20024;-37
2023/01/12 02:39:22;;;;;;;14.55;2.97;;;;;;;7.80;100.00;100815.22;5078000;28;20070;-37
2023/01/12 02:44:52;;;;;;;15.45;3.72;;;;;;;7.81;100.00;100812.31;5077144;28;20071;-37
2023/01/12 02:47:32;;;;;;;15.38;3.20;;;;;;;7.80;100.00;100794.50;5077082;28;20029;-38
2023/01/12 02:50:01;;;;;;;14.35;2.90;;;;;;;7.80;100.00;100799.06;5076730;28;20485;-38
2023/01/12 02:52:31;;;;;;;11.27;3.55;;;;;;;7.81;100.00;100795.31;5077372;28;20052;-37
2023/01/12 02:54:58;;;;;;;13.00;2.83;;;;;;;7.81;100.00;100792.63;5077489;28;20097;-37
2023/01/12 02:57:27;;;;;;;13.18;2.80;;;;;;;7.80;100.00;100786.41;5076827;28;20027;-37
2023/01/12 02:59:55;;;;;;;11.90;3.50;;;;;;;7.75;100.00;100772.78;5077384;28;20032;-38
2023/01/12 03:02:23;;;;;;;17.73;3.58;;;;;;;7.81;100.00;100781.84;5076410;28;20461;-37
2023/01/12 03:04:48;;;;;;;9.07;2.30;;;;;;;7.85;100.00;100780.41;5076456;28;20028;-38
2023/01/12 03:07:14;;;;;;;10.32;2.97;;;;;;;7.87;100.00;100775.63;5076400;28;20043;-37
2023/01/12 03:09:53;;;;;;;15.47;3.33;;;;;;;7.85;100.00;100764.25;5076646;28;20047;-37
2023/01/12 03:12:25;;;;;;;10.40;3.00;;;;;;;7.83;100.00;100745.63;5077085;28;20029;-37
2023/01/12 03:14:52;;;;;;;12.52;2.70;;;;;;;7.84;100.00;100746.44;5076585;28;20104;-37
2023/01/12 03:17:58;;;;;;;9.27;2.72;;;;;;;7.84;100.00;100741.06;5077004;28;20029;-37
2023/01/12 03:20:27;;;;;;;13.05;3.00;;;;;;;7.72;100.00;100692.47;5014477;28;20048;-37
2023/01/12 03:23:00;;;;;;;13.13;2.65;;;;;;;7.85;100.00;100734.63;5014309;28;20469;-37
2023/01/12 03:25:30;;;;;;;11.00;2.45;;;;;;;7.83;100.00;100724.09;5014630;28;20058;-37
2023/01/12 03:27:58;;;;;;;10.55;2.47;;;;;;;7.79;100.00;100705.88;5014172;28;20040;-37
2023/01/12 03:30:33;;;;;;;12.00;2.85;;;;;;;7.84;100.00;100720.34;4996946;28;20506;-37
2023/01/12 03:32:59;;;;;;;12.63;2.58;;;;;;;7.84;100.00;100720.34;5014053;28;20072;-37
2023/01/12 03:35:27;;;;;;;11.35;3.10;;;;;;;7.83;100.00;100696.34;5014088;28;20072;-37
2023/01/12 03:38:32;;;;;;;9.63;2.45;;;;;;;7.90;100.00;100721.34;5014014;28;20038;-37
2023/01/12 03:41:07;;;;;;;11.02;2.30;;;;;;;7.89;100.00;100708.94;5008208;28;20042;-37
2023/01/12 03:43:49;;;;;;;14.20;2.88;;;;;;;7.88;100.00;100693.81;5014077;28;20049;-37
2023/01/12 03:46:22;;;;;;;13.02;3.25;;;;;;;7.88;100.00;100678.50;5013882;28;20030;-37
2023/01/12 03:49:10;;;;;;;9.88;2.30;;;;;;;7.90;100.00;100678.25;5014182;28;20075;-37
2023/01/12 03:51:41;;;;;;;11.77;3.10;;;;;;;7.87;100.00;100670.63;5013455;28;20188;-37
2023/01/12 03:54:10;;;;;;;9.85;2.13;;;;;;;7.89;100.00;100684.69;5014031;28;20111;-37
2023/01/12 03:56:38;;;;;;;8.95;2.53;;;;;;;7.87;100.00;100646.41;5064581;28;20043;-37
2023/01/12 03:59:04;;;;;;;11.48;2.60;;;;;;;7.81;100.00;100633.78;5075713;28;20118;-37
2023/01/12 04:01:30;;;;;;;7.53;2.70;;;;;;;7.85;100.00;100629.63;5076426;28;20123;-37
2023/01/12 04:03:55;;;;;;;;;;;;;;;7.88;100.00;100639.97;5076621;28;20029;-37
2023/01/12 04:06:21;;;;;;;9.13;2.07;;;;;;;7.86;100.00;100632.13;5075598;28;19908;-37
2023/01/12 04:08:46;;;;;;;9.82;2.55;;;;;;;7.83;100.00;100623.66;5076403;28;20376;-37
2023/01/12 04:13:56;;;;;;;9.38;2.00;;;;;;;7.82;100.00;100612.06;5076014;28;20161;-37
2023/01/12 04:16:21;;;;;;;9.70;2.60;;;;;;;7.83;100.00;100583.28;5075986;28;20478;-37
2023/01/12 04:18:46;;;;;;;10.43;2.50;;;;;;;7.83;100.00;100583.28;5076213;28;20032;-37
2023/01/12 04:23:55;;;;;;;8.80;2.38;;;;;;;7.84;100.00;100560.69;5075303;28;20150;-37
2023/01/12 04:26:21;;;;;;;7.30;2.23;;;;;;;7.79;100.00;100544.38;5074962;28;20099;-37
2023/01/12 04:28:47;;;;;;;8.47;2.30;;;;;;;7.85;100.00;100557.75;5074889;28;20030;-37
2023/01/12 04:31:12;;;;;;;9.70;2.10;;;;;;;7.86;100.00;100558.63;5075211;28;20033;-37
2023/01/12 04:33:37;;;;;;;7.93;2.30;;;;;;;7.84;100.00;100533.78;5074780;28;20032;-37
2023/01/12 04:36:03;;;;;;;9.87;2.77;;;;;;;7.86;100.00;100524.44;5074746;28;20032;-37
2023/01/12 04:38:28;;;;;;;11.95;3.08;;;;;;;7.85;100.00;100522.78;5075005;28;20031;-37
2023/01/12 04:40:54;;;;;;;10.60;2.83;;;;;;;7.85;100.00;100508.50;5074944;28;20029;-37
2023/01/12 04:43:19;;;;;;;12.60;2.67;;;;;;;7.85;100.00;100493.16;5074615;28;20032;-37
2023/01/12 04:45:46;;;;;;;13.23;2.77;;;;;;;7.86;100.00;100507.47;5074827;28;20046;-37
2023/01/12 04:48:14;;;;;;;8.88;2.40;;;;;;;7.83;100.00;100497.13;5074423;28;20297;-37
2023/01/12 04:50:40;;;;;;;6.63;2.08;;;;;;;7.86;100.00;100505.59;5074363;28;20036;-37
2023/01/12 04:53:08;;;;;;;8.68;2.10;;;;;;;7.86;100.00;100500.22;5074603;28;20032;-37
2023/01/12 04:55:38;;;;;;;7.82;2.80;;;;;;;7.88;100.00;100514.25;5074275;28;20052;-37
2023/01/12 04:58:04;;;;;;;9.25;2.10;;;;;;;7.87;100.00;100509.09;5074564;28;20473;-37
2023/01/12 05:00:30;;;;;;;10.43;2.83;;;;;;;7.87;100.00;100493.78;5074546;28;20115;-37
2023/01/12 05:02:58;;;;;;;8.77;2.47;;;;;;;7.87;100.00;100491.09;5074195;28;20043;-37
2023/01/12 05:05:24;;;;;;;8.80;2.67;;;;;;;7.87;100.00;100509.09;5074403;28;20409;-36
2023/01/12 05:10:33;;;;;;;9.60;2.30;;;;;;;7.86;100.00;100492.13;5074345;28;20059;-37
2023/01/12 05:12:58;;;;;;;9.30;2.27;;;;;;;7.87;100.00;100480.31;5073930;28;20104;-37
2023/01/12 05:15:24;;;;;;;14.23;2.70;;;;;;;7.86;100.00;100496.69;5074296;28;20063;-37
2023/01/12 05:17:49;;;;;;;10.93;2.47;;;;;;;7.88;100.00;100492.72;5074146;28;20032;-37
2023/01/12 05:20:15;;;;;;;9.83;2.43;;;;;;;7.79;100.00;100469.00;5075034;28;20089;-37
2023/01/12 05:22:40;;;;;;;13.63;2.72;;;;;;;7.84;100.00;100496.91;5074125;28;20522;-37
2023/01/12 05:25:06;;;;;;;12.23;2.47;;;;;;;7.87;100.00;100503.72;5072792;28;20032;-37
2023/01/12 05:27:31;;;;;;;8.52;2.03;;;;;;;7.85;100.00;100495.03;5073977;28;20024;-37
2023/01/12 05:29:58;;;;;;;7.87;2.90;;;;;;;7.86;100.00;100481.38;5074021;28;20032;-37
2023/01/12 05:32:24;;;;;;;13.48;2.30;;;;;;;7.80;100.00;100459.88;5074346;28;20029;-37
2023/01/12 05:34:49;;;;;;;7.88;2.33;;;;;;;7.88;100.00;100460.41;5073994;28;20028;-37
2023/01/12 05:37:15;;;;;;;9.40;2.73;;;;;;;7.84;100.00;100451.13;5072876;28;20044;-37
2023/01/12 05:39:40;;;;;;;7.77;1.80;;;;;;;7.86;100.00;100453.63;5074427;28;20407;-37
2023/01/12 05:44:50;;;;;;;11.52;2.25;;;;;;;7.84;100.00;100451.13;5074061;28;20032;-37
2023/01/12 05:47:15;;;;;;;13.63;3.17;;;;;;;7.86;100.00;100449.06;5073453;28;20025;-37
2023/01/12 05:49:40;;;;;;;13.33;2.70;;;;;;;7.87;100.00;100452.56;5074082;28;20036;-36
2023/01/12 05:52:05;;;;;;;8.90;2.03;;;;;;;7.81;100.00;100442.66;5074108;28;20135;-37
2023/01/12 05:54:31;;;;;;;8.17;1.53;;;;;;;7.89;100.00;100469.31;5072880;28;20063;-36
2023/01/12 05:56:56;;;;;;;8.90;2.13;;;;;;;7.89;100.00;100458.53;5074225;28;20028;-37
2023/01/12 05:59:22;;;;;;;7.87;1.77;;;;;;;7.85;100.00;100442.00;5074455;28;20025;-37
2023/01/12 06:01:47;;;;;;;8.70;1.70;;;;;;;7.89;100.00;100450.47;5073331;28;20285;-37
2023/01/12 06:04:12;;;;;;;8.37;1.60;;;;;;;7.89;100.00;100448.59;5074243;28;20037;-37
2023/01/12 06:06:38;;;;;;;7.37;1.80;;;;;;;7.82;100.00;100437.09;5073572;28;20108;-37
2023/01/12 06:09:03;;;;;;;7.50;1.60;;;;;;;7.90;100.00;100442.16;5073627;28;20122;-37
2023/01/12 06:14:12;;;;;;;7.93;1.67;;;;;;;7.91;100.00;100432.25;5073497;28;20043;-37
2023/01/12 06:16:40;;;;;;;7.90;2.20;;;;;;;7.91;100.00;100437.63;5073437;28;20020;-37
2023/01/12 06:19:06;;;;;;;6.47;1.50;;;;;;;7.92;100.00;100444.66;5073720;28;20415;-38
2023/01/12 06:21:32;;;;;;;7.03;1.52;;;;;;;7.92;100.00;100441.97;5073111;28;20107;-36
2023/01/12 06:23:57;;;;;;;6.55;1.38;;;;;;;7.96;100.00;100435.09;5073858;28;20028;-36
2023/01/12 06:26:23;;;;;;;6.50;1.63;;;;;;;8.00;100.00;100438.94;5073382;28;20361;-36
2023/01/12 06:28:48;;;;;;;4.43;1.35;;;;;;;8.01;100.00;100448.69;5074494;28;20028;-37
2023/01/12 06:31:14;;;;;;;8.00;1.63;;;;;;;8.04;100.00;100444.72;5071986;28;20107;-37
2023/01/12 06:33:40;;;;;;;3.63;0.93;;;;;;;8.05;100.00;100446.34;5074112;28;20044;-37
2023/01/12 06:36:06;;;;;;;6.13;1.10;;;;;;;8.07;100.00;100449.66;5073209;28;20115;-37
2023/01/12 06:38:33;;;;;;;8.63;1.40;;;;;;;8.06;100.00;100456.94;5072941;28;20078;-37
2023/01/12 06:43:55;;;;;;;5.05;1.60;;;;;;;8.12;100.00;100439.03;5031062;28;20509;-38
2023/01/12 06:46:21;;;;;;;5.70;1.70;;;;;;;8.13;100.00;100454.16;5031629;28;20095;-38
2023/01/12 06:48:46;;;;;;;5.27;1.43;;;;;;;8.14;100.00;100451.22;5031126;28;20045;-37
2023/01/12 06:51:11;;;;;;;4.65;1.40;;;;;;;8.15;100.00;100450.19;5030490;28;20053;-37
2023/01/12 06:53:37;;;;;;;5.47;1.10;;;;;;;8.17;100.00;100441.88;5031002;28;20185;-37
2023/01/12 06:56:02;;;;;;;6.85;1.30;;;;;;;8.19;100.00;100448.69;5031247;28;20488;-37
2023/01/12 06:58:28;;;;;;;4.72;1.40;;;;;;;8.21;100.00;100457.38;5030774;28;20095;-38
2023/01/12 07:00:53;;;;;;;4.40;1.17;;;;;;;8.22;100.00;100458.19;5030747;28;20037;-38
2023/01/12 07:03:19;;;;;;;4.23;1.17;;;;;;;8.22;100.00;100453.63;5030877;28;20494;-38
2023/01/12 07:05:45;;;;;;;3.38;1.20;;;;;;;8.16;100.00;100446.47;5032945;28;20125;-38
2023/01/12 07:08:14;;;;;;;4.47;1.40;;;;;;;8.26;100.00;100464.78;5034620;28;20448;-38
2023/01/12 07:10:40;;;;;;;5.90;1.13;;;;;;;8.27;100.00;100467.25;5035185;28;20036;-38
2023/01/12 07:13:05;;;;;;;7.13;1.30;;;;;;;8.25;100.00;100461.28;5034913;28;20033;-38
2023/01/12 07:15:30;;;;;;;4.68;1.10;;;;;;;8.27;100.00;100452.97;5034419;28;20142;-38
2023/01/12 07:17:56;;;;;;;5.77;1.07;;;;;;;8.30;100.00;100454.38;5034861;28;20087;-37
2023/01/12 07:20:22;;;;;;;2.20;0.82;;;;;;;8.31;100.00;100464.13;5045388;28;20037;-38
2023/01/12 07:22:47;;;;;;;2.30;0.90;;;;;;;8.30;100.00;100455.22;5077190;28;20111;-38
2023/01/12 07:25:13;;;;;;;3.60;1.10;;;;;;;8.34;100.00;100461.78;5076487;28;20025;-38
2023/01/12 07:27:38;;;;;;;3.23;0.83;;;;;;;8.35;100.00;100465.31;5076393;28;20332;-38
2023/01/12 07:30:04;;;;;;;3.97;1.50;;;;;;;8.30;100.00;100460.59;5076046;28;20047;-38
2023/01/12 07:32:29;;;;;;;4.72;1.33;;;;;;;8.36;100.00;100465.09;5076413;28;20488;-38
2023/01/12 07:34:55;;;;;;;5.93;1.40;;;;;;;8.39;100.00;100464.63;5076204;28;20037;-38
2023/01/12 07:37:20;;;;;;;2.10;0.90;;;;;;;8.39;100.00;100470.03;5076211;28;20032;-38
2023/01/12 07:39:45;;;;;;;2.83;0.93;;;;;;;8.40;100.00;100473.56;5092712;28;20028;-38
2023/01/12 07:42:23;;;;;;;3.13;1.17;;;;;;;8.38;100.00;100473.78;5076388;28;20028;-38
2023/01/12 07:44:48;;;;;;;1.95;0.88;;;;;;;8.38;100.00;100481.03;5076339;28;20075;-38
2023/01/12 07:47:13;;;;;;;4.60;0.80;;;;;;;8.38;100.00;100497.22;5075976;28;20064;-38
2023/01/12 07:49:39;;;;;;;5.50;1.20;;;;;;;8.34;100.00;100486.00;5076029;28;20025;-38
2023/01/12 07:52:04;;;;;;;2.43;0.90;;;;;;;8.39;100.00;100480.81;5076652;28;20140;-38
2023/01/12 07:54:30;;;;;;;4.10;1.10;;;;;;;8.42;100.00;100490.31;5075868;28;20094;-38
2023/01/12 07:56:55;;;;;;;3.67;1.30;;;;;;;8.35;100.00;100485.00;5076440;28;20031;-38
2023/01/12 07:59:20;;;;;;;2.80;0.87;;;;;;;8.42;100.00;100503.78;5075100;28;20468;-38
2023/01/12 08:01:46;;;;;;;3.43;1.20;;;;;;;8.41;100.00;100486.81;5075713;28;20043;-38
2023/01/12 08:04:12;;;;;;;2.13;1.03;;;;;;;8.38;100.00;100483.72;5075986;28;20756;-38
2023/01/12 08:06:37;;;;;;;3.60;1.33;;;;;;;8.41;100.00;100483.28;5075208;28;20368;-38
2023/01/12 08:09:03;;;;;;;3.27;1.50;;;;;;;8.45;100.00;100498.78;5075432;28;20025;-38
2023/01/12 08:11:28;;;;;;;3.35;1.13;;;;;;;8.47;100.00;100512.03;5075453;28;20086;-38
2023/01/12 08:13:55;;;;;;;3.13;1.10;;;;;;;8.46;100.00;100492.34;5075600;28;20511;-37
2023/01/12 08:16:26;;;;;;;2.03;1.23;;;;;;;8.48;100.00;100505.59;5073925;28;20039;-38
2023/01/12 08:19:01;;;;;;;4.00;1.52;;;;;;;8.50;100.00;100509.72;5075579;28;20039;-38
2023/01/12 08:21:32;;;;;;;5.13;1.30;;;;;;;8.51;100.00;100503.28;5074974;28;20028;-38
2023/01/12 08:24:02;;;;;;;4.53;1.30;;;;;;;8.54;100.00;100511.94;5075022;28;20056;-37
2023/01/12 08:26:35;;;;;;;1.52;1.00;;;;;;;8.55;100.00;100505.53;5075453;28;20032;-38
2023/01/12 08:29:13;;;;;;;4.22;1.17;;;;;;;8.57;100.00;100509.63;5075259;28;20030;-37
2023/01/12 08:31:40;;;;;;;4.07;1.10;;;;;;;8.58;100.00;100508.56;5075043;28;20032;-38
2023/01/12 08:34:07;;;;;;;3.58;1.90;;;;;;;8.58;100.00;100511.25;5075942;28;20412;-38
2023/01/12 08:36:33;;;;;;;3.90;1.50;;;;;;;8.60;100.00;100502.97;5074757;28;20484;-38
2023/01/12 08:39:00;;;;;;;2.97;1.45;;;;;;;8.59;100.00;100509.38;5075339;28;20024;-38
2023/01/12 08:41:31;;;;;;;6.28;2.83;;;;;;;8.62;100.00;100514.34;5074668;28;20037;-38
2023/01/12 08:44:01;;;;;;;2.05;1.33;;;;;;;8.64;100.00;100509.56;5075521;28;20033;-37
2023/01/12 08:46:39;;;;;;;3.30;2.28;;;;;;;8.67;100.00;100530.66;5074495;28;20432;-38
2023/01/12 08:49:10;;;;;;;4.25;2.10;;;;;;;8.70;100.00;100519.44;5075364;28;20426;-37
2023/01/12 08:51:35;;;;;;;3.47;1.80;;;;;;;8.71;100.00;100529.16;5074424;28;20071;-38
2023/01/12 08:54:01;;;;;;;5.35;3.65;;;;;;;8.71;100.00;100515.69;5075242;28;20453;-37
2023/01/12 08:56:27;;;;;;;5.55;1.52;;;;;;;8.63;100.00;100518.69;5074897;28;20028;-37
2023/01/12 08:58:52;;;;;;;2.13;1.42;;;;;;;8.74;100.00;100532.22;5074482;28;20438;-37
2023/01/12 09:01:18;;;;;;;3.47;1.47;;;;;;;8.77;100.00;100531.75;5074265;28;20028;-38
2023/01/12 09:03:44;;;;;;;;;;;;;;;8.80;100.00;100535.88;5074946;28;20271;-37
2023/01/12 09:06:16;;;;;;;2.58;1.17;;;;;;;8.81;100.00;100547.50;5074217;28;19912;-37
2023/01/12 09:08:42;;;;;;;2.85;1.77;;;;;;;8.80;100.00;100537.78;5074178;28;20020;-37
2023/01/12 09:11:09;;;;;;;3.65;2.42;;;;;;;8.79;100.00;100534.25;5074267;28;20031;-37
2023/01/12 09:13:34;;;;;;;2.58;1.95;;;;;;;8.87;100.00;100546.59;5074260;28;20035;-37
2023/01/12 09:16:05;;;;;;;3.33;2.20;;;;;;;8.87;100.00;100542.00;5074316;28;20032;-37
2023/01/12 09:18:30;;;;;;;5.20;4.65;;;;;;;8.90;100.00;100551.53;5074744;28;20024;-37
2023/01/12 09:21:17;;;;;;;5.18;3.78;;;;;;;8.92;100.00;100546.72;5074151;28;20032;-37
2023/01/12 09:23:43;;;;;;;4.00;2.95;;;;;;;8.81;100.00;100532.13;5074226;28;20160;-37
2023/01/12 09:26:14;;;;;;;4.80;2.75;;;;;;;8.92;100.00;100547.53;5074111;28;20062;-37
2023/01/12 09:28:43;;;;;;;4.32;3.25;;;;;;;8.93;100.00;100546.53;5073826;28;20020;-37
2023/01/12 09:31:11;;;;;;;3.22;1.80;;;;;;;8.95;100.00;100555.19;5073873;28;20036;-37
2023/01/12 09:33:37;;;;;;;2.45;2.05;;;;;;;8.91;100.00;100564.78;5073985;28;20029;-37
2023/01/12 09:36:04;;;;;;;;;;;;;;;9.01;100.00;100569.63;5074314;28;20081;-37
2023/01/12 09:38:30;;;;;;;2.90;2.42;;;;;;;8.92;100.00;100546.72;5073533;28;20268;-37
2023/01/12 09:40:58;;;;;;;3.38;2.90;;;;;;;8.98;100.00;100568.22;5073889;28;20036;-37
2023/01/12 09:49:12;;;;;;;4.25;2.33;;;;;;;9.00;100.00;100566.13;5074425;28;20040;-37
2023/01/12 09:51:53;;;;;;;3.30;2.92;;;;;;;9.01;100.00;100575.84;5073504;28;20062;-37
2023/01/12 09:54:19;;;;;;;3.55;1.55;;;;;;;9.01;100.00;100575.84;5074561;28;20029;-37
2023/01/12 09:56:58;;;;;;;2.30;1.40;;;;;;;9.06;100.00;100590.53;5073423;28;20362;-37
2023/01/12 09:59:29;;;;;;;1.98;1.77;;;;;;;9.01;100.00;100581.25;5073366;28;20036;-37
2023/01/12 10:01:55;;;;;;;2.90;1.27;;;;;;;9.05;100.00;100573.53;5074161;28;20035;-37
2023/01/12 10:04:21;;;;;;;1.27;0.77;;;;;;;9.09;100.00;100590.09;5073899;28;20119;-38
2023/01/12 10:06:46;;;;;;;1.43;0.87;;;;;;;9.17;100.00;100604.06;5073536;28;20028;-37
2023/01/12 10:09:17;;;;;;;1.17;0.60;;;;;;;9.15;100.00;100591.88;5074394;28;20270;-37
2023/01/12 10:12:01;;;;;;;1.00;0.57;;;;;;;9.19;100.00;100593.06;5074265;28;20058;-37
2023/01/12 10:14:46;;;;;;;2.25;0.93;;;;;;;9.20;100.00;100598.22;5073811;28;20029;-37
2023/01/12 10:17:33;;;;;;;1.55;0.70;;;;;;;9.23;100.00;100594.25;5073803;28;20029;-37
2023/01/12 10:20:07;;;;;;;0.50;0.40;;;;;;;9.23;100.00;100602.34;5073755;28;20035;-37
2023/01/12 10:22:48;;;;;;;2.85;0.73;;;;;;;9.21;100.00;100607.97;5073417;28;20112;-37
2023/01/12 10:25:36;;;;;;;1.27;0.65;;;;;;;9.24;100.00;100607.53;5073988;28;20032;-38
2023/01/12 10:28:23;;;;;;;1.55;0.70;;;;;;;9.20;100.00;100609.03;5073649;28;20034;-38
2023/01/12 10:30:48;;;;;;;1.00;0.70;;;;;;;9.16;100.00;100604.31;5073570;28;20105;-37
2023/01/12 10:33:16;;;;;;;1.48;0.65;;;;;;;9.16;100.00;100605.13;5072955;28;20053;-37
2023/01/12 10:35:49;;;;;;;1.33;0.70;;;;;;;9.11;100.00;100599.59;5073022;28;20474;-37
2023/01/12 10:38:21;;;;;;;0.52;0.50;;;;;;;9.17;100.00;100601.38;5093311;28;20024;-37
2023/01/12 10:41:09;;;;;;;1.50;0.60;;;;;;;9.16;100.00;100607.81;5095841;28;20020;-37
2023/01/12 10:43:40;;;;;;;1.83;0.63;;;;;;;9.14;100.00;100606.41;5097684;28;20028;-37
2023/01/12 10:46:10;;;;;;;1.50;0.70;;;;;;;9.19;100.00;100593.88;5098219;28;20102;-38
2023/01/12 10:48:38;;;;;;;1.73;1.40;;;;;;;9.14;100.00;100584.84;5097883;28;20521;-37
2023/01/12 10:51:07;;;;;;;1.40;1.02;;;;;;;9.17;100.00;100600.56;5079344;28;20023;-37
2023/01/12 10:53:59;;;;;;;1.60;0.68;;;;;;;9.21;100.00;100605.25;5097930;28;20044;-37
2023/01/12 10:56:34;;;;;;;1.30;0.70;;;;;;;9.13;100.00;100588.59;5097188;28;20026;-37
2023/01/12 10:58:59;;;;;;;1.40;0.90;;;;;;;9.24;100.00;100598.59;5097974;28;20093;-37
2023/01/12 11:01:40;;;;;;;1.27;0.87;;;;;;;9.24;100.00;100602.13;5097086;28;20090;-38
2023/01/12 11:04:06;;;;;;;1.40;0.80;;;;;;;9.24;100.00;100585.94;5097669;28;20107;-37
2023/01/12 11:06:31;;;;;;;3.08;2.13;;;;;;;9.27;100.00;100600.81;5097017;28;20146;-37
2023/01/12 11:08:58;;;;;;;2.92;2.17;;;;;;;9.29;100.00;100593.34;5097543;28;20039;-37
2023/01/12 11:11:28;;;;;;;3.08;1.30;;;;;;;9.29;100.00;100591.47;5097626;28;20028;-37
2023/01/12 11:13:56;;;;;;;0.75;0.60;;;;;;;9.31;100.00;100593.94;5097158;28;20111;-37
2023/01/12 11:16:32;;;;;;;1.02;0.93;;;;;;;9.32;100.00;100592.03;5096741;28;20024;-37
2023/01/12 11:19:17;;;;;;;0.85;0.60;;;;;;;9.34;100.00;100588.09;5096794;28;20035;-37
2023/01/12 11:22:03;;;;;;;0.88;0.70;;;;;;;9.31;100.00;100582.31;5096720;28;20024;-37
2023/01/12 11:24:48;;;;;;;0.90;0.70;;;;;;;9.38;100.00;100585.75;5096959;28;20031;-37
2023/01/12 11:27:21;;;;;;;2.65;1.23;;;;;;;9.34;100.00;100584.56;5096341;28;20024;-37
2023/01/12 11:30:22;;;;;;;1.38;0.80;;;;;;;9.41;100.00;100591.50;5096664;28;20017;-37
2023/01/12 11:33:11;;;;;;;0.80;0.60;;;;;;;9.42;100.00;100593.16;5014655;28;20053;-37
2023/01/12 11:35:50;;;;;;;0.65;0.60;;;;;;;9.42;100.00;100586.91;5014136;28;20042;-37
2023/01/12 11:38:37;;;;;;;1.20;0.90;;;;;;;9.41;100.00;100596.91;5014698;28;20029;-37
2023/01/12 11:41:06;;;;;;;;;;;;;;;9.44;100.00;100596.44;5015371;28;20479;-38
2023/01/12 11:43:50;;;;;;;1.00;0.90;;;;;;;9.43;100.00;100585.91;5013981;28;19936;-37
2023/01/12 11:46:43;;;;;;;1.13;0.60;;;;;;;9.44;100.00;100584.84;5014270;28;20034;-37
2023/01/12 11:49:22;;;;;;;1.33;0.93;;;;;;;9.43;100.00;100594.00;5014033;28;20038;-37
2023/01/12 11:51:51;;;;;;;1.20;0.73;;;;;;;9.43;100.00;100584.00;5013071;28;20062;-38
2023/01/12 11:54:18;;;;;;;0.70;0.60;;;;;;;9.43;100.00;100584.00;5013821;28;20050;-37
2023/01/12 11:56:49;;;;;;;;;;;;;;;9.44;100.00;100582.97;5014222;28;20034;-38
2023/01/12 11:59:23;;;;;;;1.70;0.68;;;;;;;9.43;100.00;100585.91;5013829;28;20009;-38
2023/01/12 12:02:00;;;;;;;2.97;1.40;;;;;;;9.36;100.00;100561.69;5014337;28;20041;-38
2023/01/12 12:04:53;;;;;;;2.03;0.93;;;;;;;9.43;100.00;100578.63;5013918;28;20056;-38
2023/01/12 12:07:48;;;;;;;1.35;0.80;;;;;;;9.39;100.00;100563.94;5021265;28;20080;-38
2023/01/12 12:10:32;;;;;;;1.67;0.85;;;;;;;9.36;100.00;100560.84;5082174;28;20050;-38
2023/01/12 12:13:15;;;;;;;2.85;0.85;;;;;;;9.42;100.00;100568.88;5095721;28;20024;-38